createdAt,value
2023-02-06T00:03:51.687Z,85.76
2023-02-06T00:07:54.778Z,85.96
2023-02-06T00:11:56.222Z,87.09
2023-02-06T00:15:57.702Z,86.54
2023-02-06T00:19:59.158Z,88.06
2023-02-06T00:24:03.386Z,90.24
2023-02-06T00:28:05.343Z,89.57
2023-02-06T00:32:06.849Z,87.22
2023-02-06T00:36:09.730Z,87.83
2023-02-06T00:40:12.832Z,88.68
2023-02-06T00:44:14.255Z,87.58
2023-02-06T00:48:15.693Z,90.63
2023-02-06T00:52:17.160Z,89.79
2023-02-06T00:56:20.084Z,89.63
2023-02-06T01:00:21.709Z,88.44
2023-02-06T01:04:23.212Z,89.41
2023-02-06T01:08:24.745Z,89.77
2023-02-06T01:12:27.531Z,87.61
2023-02-06T01:16:29.077Z,88.05
2023-02-06T01:20:30.742Z,87.10
2023-02-06T01:24:32.403Z,89.68
2023-02-06T01:28:37.110Z,89.77
2023-02-06T01:32:40.305Z,91.36
2023-02-06T01:36:41.809Z,89.19
2023-02-06T01:40:43.942Z,89.64
2023-02-06T01:44:46.756Z,88.76
2023-02-06T01:48:51.463Z,90.73
2023-02-06T01:52:53.236Z,89.95
2023-02-06T01:56:58.870Z,88.56
2023-02-06T02:01:02.706Z,91.19
2023-02-06T02:05:08.399Z,89.79
2023-02-06T02:09:09.856Z,88.62
2023-02-06T02:13:11.343Z,90.28
2023-02-06T02:17:30.608Z,89.95
2023-02-06T02:22:08.262Z,91.04
2023-02-06T02:26:27.066Z,89.68
2023-02-06T02:31:05.090Z,88.83
2023-02-06T02:35:22.258Z,90.11
2023-02-06T02:39:34.633Z,90.40
2023-02-06T02:43:42.820Z,89.51
2023-02-06T02:47:49.517Z,90.61
2023-02-06T02:51:53.578Z,88.90
2023-02-06T02:55:55.153Z,91.49
2023-02-06T02:59:59.658Z,91.17
2023-02-06T03:04:06.695Z,89.14
2023-02-06T03:08:15.875Z,89.63
2023-02-06T03:12:23.126Z,88.25
2023-02-06T03:16:29.814Z,90.79
2023-02-06T03:20:32.602Z,89.23
2023-02-06T03:24:39.263Z,87.73
2023-02-06T03:28:44.776Z,89.26
2023-02-06T03:32:53.379Z,89.79
2023-02-06T03:36:55.034Z,89.53
2023-02-06T03:41:00.092Z,88.99
2023-02-06T03:45:05.759Z,88.73
2023-02-06T03:49:09.514Z,88.48
2023-02-06T03:53:12.099Z,87.67
2023-02-06T03:57:17.485Z,88.89
2023-02-06T04:01:19.194Z,88.78
2023-02-06T04:05:20.762Z,88.32
2023-02-06T04:09:22.273Z,88.03
2023-02-06T04:13:25.089Z,88.70
2023-02-06T04:17:43.060Z,88.54
2023-02-06T04:21:48.376Z,87.42
2023-02-06T04:25:49.816Z,88.21
2023-02-06T04:29:52.640Z,86.31
2023-02-06T04:33:54.095Z,87.90
2023-02-06T04:37:55.851Z,87.23
2023-02-06T04:41:57.308Z,87.16
2023-02-06T04:46:00.216Z,88.22
2023-02-06T04:50:02.836Z,89.01
2023-02-06T04:54:06.169Z,89.12
2023-02-06T04:58:07.966Z,88.25
2023-02-06T05:02:10.742Z,89.69
2023-02-06T05:06:12.439Z,88.86
2023-02-06T05:10:14.167Z,88.88
2023-02-06T05:14:15.626Z,88.71
2023-02-06T05:18:18.645Z,87.62
2023-02-06T05:22:20.094Z,86.86
2023-02-06T05:26:21.541Z,85.37
2023-02-06T05:30:23.402Z,85.80
2023-02-06T05:34:26.658Z,86.22
2023-02-06T05:38:28.083Z,87.96
2023-02-06T05:42:29.587Z,87.09
2023-02-06T05:46:31.132Z,87.10
2023-02-06T05:50:33.966Z,87.98
2023-02-06T05:54:35.527Z,84.92
2023-02-06T05:58:37.123Z,85.87
2023-02-06T06:02:39.177Z,85.89
2023-02-06T06:06:41.986Z,86.08
2023-02-06T06:10:43.473Z,86.60
2023-02-06T06:14:44.928Z,86.11
2023-02-06T06:18:46.368Z,86.30
2023-02-06T06:22:49.156Z,86.46
2023-02-06T06:26:50.780Z,85.51
2023-02-06T06:31:00.337Z,87.20
2023-02-06T06:35:01.813Z,83.26
2023-02-06T06:39:04.654Z,86.24
2023-02-06T06:43:06.128Z,85.47
2023-02-06T06:47:07.733Z,86.42
2023-02-06T06:51:09.379Z,84.30
2023-02-06T06:55:12.327Z,84.73
2023-02-06T06:59:13.893Z,85.07
2023-02-06T07:03:15.473Z,85.97
2023-02-06T07:07:17.166Z,85.63
2023-02-06T07:11:20.061Z,85.53
2023-02-06T07:15:21.614Z,85.23
2023-02-06T07:19:23.127Z,85.31
2023-02-06T07:23:24.700Z,83.19
2023-02-06T07:27:27.621Z,85.13
2023-02-06T07:31:29.144Z,84.92
2023-02-06T07:35:30.680Z,84.38
2023-02-06T07:39:32.242Z,83.94
2023-02-06T07:43:35.109Z,83.80
2023-02-06T07:47:36.601Z,81.45
2023-02-06T07:51:38.121Z,84.67
2023-02-06T07:55:39.644Z,81.48
2023-02-06T07:59:42.443Z,81.91
2023-02-06T08:03:43.999Z,82.89
2023-02-06T08:07:45.555Z,84.05
2023-02-06T08:11:47.148Z,84.00
2023-02-06T08:15:49.977Z,82.64
2023-02-06T08:19:51.446Z,82.22
2023-02-06T08:23:56.565Z,83.73
2023-02-06T08:27:58.067Z,83.67
2023-02-06T08:32:00.881Z,82.73
2023-02-06T08:36:02.460Z,83.78
2023-02-06T08:40:04.803Z,83.21
2023-02-06T08:44:08.260Z,83.45
2023-02-06T08:48:11.218Z,83.06
2023-02-06T08:52:12.685Z,82.04
2023-02-06T08:56:14.575Z,82.24
2023-02-06T09:00:17.185Z,81.96
2023-02-06T09:04:20.638Z,82.11
2023-02-06T09:08:22.087Z,80.45
2023-02-06T09:12:23.564Z,80.29
2023-02-06T09:16:26.718Z,81.04
2023-02-06T09:20:29.531Z,81.54
2023-02-06T09:24:31.191Z,82.26
2023-02-06T09:28:32.880Z,82.83
2023-02-06T09:32:34.362Z,83.32
2023-02-06T09:36:37.205Z,84.31
2023-02-06T09:40:38.725Z,84.92
2023-02-06T09:44:43.834Z,84.58
2023-02-06T09:48:45.352Z,85.68
2023-02-06T09:52:57.981Z,85.29
2023-02-06T09:57:06.240Z,85.71
2023-02-06T10:01:18.197Z,85.96
2023-02-06T10:05:25.078Z,85.22
2023-02-06T10:09:37.084Z,82.13
2023-02-06T10:13:44.199Z,81.98
2023-02-06T10:17:51.465Z,83.58
2023-02-06T10:21:57.904Z,84.25
2023-02-06T10:26:05.885Z,84.30
2023-02-06T10:30:15.748Z,83.94
2023-02-06T10:34:31.356Z,84.11
2023-02-06T10:39:08.396Z,84.35
2023-02-06T10:43:22.963Z,84.75
2023-02-06T10:47:33.553Z,84.85
2023-02-06T10:51:37.835Z,85.79
2023-02-06T10:55:49.171Z,86.57
2023-02-06T10:59:56.565Z,87.53
2023-02-06T11:04:03.592Z,89.21
2023-02-06T11:08:13.685Z,89.83
2023-02-06T11:12:25.436Z,89.82
2023-02-06T11:16:29.091Z,90.02
2023-02-06T11:20:33.553Z,89.79
2023-02-06T11:24:36.400Z,88.54
2023-02-06T11:28:41.305Z,87.92
2023-02-06T11:32:55.750Z,88.00
2023-02-06T11:37:07.149Z,90.39
2023-02-06T11:41:18.346Z,91.05
2023-02-06T11:45:25.291Z,88.51
2023-02-06T11:49:28.881Z,88.05
2023-02-06T11:53:30.544Z,85.73
2023-02-06T11:57:33.776Z,85.53
2023-02-06T12:01:43.006Z,87.26
2023-02-06T12:05:46.046Z,86.46
2023-02-06T12:09:47.655Z,85.19
2023-02-06T12:13:54.588Z,85.18
2023-02-06T12:18:01.874Z,82.39
2023-02-06T12:22:12.248Z,82.70
2023-02-06T12:26:17.813Z,83.78
2023-02-06T12:30:30.287Z,82.86
2023-02-06T12:34:34.885Z,81.27
2023-02-06T12:38:41.589Z,78.40
2023-02-06T12:42:47.483Z,78.62
2023-02-06T12:46:55.955Z,79.24
2023-02-06T12:51:07.936Z,79.66
2023-02-06T12:55:19.758Z,78.34
2023-02-06T12:59:58.655Z,77.82
2023-02-06T13:04:02.998Z,76.65
2023-02-06T13:08:08.736Z,76.98
2023-02-06T13:12:15.783Z,77.43
2023-02-06T13:16:17.363Z,76.36
2023-02-06T13:20:19.948Z,75.62
2023-02-06T13:24:21.479Z,75.59
2023-02-06T13:28:46.569Z,76.09
2023-02-06T13:32:48.658Z,75.33
2023-02-06T13:36:53.270Z,73.70
2023-02-06T13:41:29.908Z,74.37
2023-02-06T13:45:37.517Z,74.01
2023-02-06T13:50:15.438Z,74.45
2023-02-06T13:54:53.451Z,72.80
2023-02-06T13:58:56.615Z,75.35
2023-02-06T14:03:06.326Z,75.31
2023-02-06T14:07:30.390Z,74.15
2023-02-06T14:11:49.164Z,75.85
2023-02-06T14:15:58.386Z,74.10
2023-02-06T14:20:10.119Z,75.31
2023-02-06T14:24:26.908Z,74.11
2023-02-06T14:28:36.332Z,74.55
2023-02-06T14:32:46.024Z,75.08
2023-02-06T14:37:06.868Z,74.56
2023-02-06T14:41:09.451Z,73.26
2023-02-06T14:45:24.674Z,72.41
2023-02-06T14:49:31.790Z,71.54
2023-02-06T14:53:37.001Z,72.02
2023-02-06T14:57:38.598Z,73.37
2023-02-06T15:01:41.350Z,75.64
2023-02-06T15:05:43.640Z,76.70
2023-02-06T15:09:56.012Z,76.06
2023-02-06T15:13:58.018Z,75.44
2023-02-06T15:18:01.320Z,76.56
2023-02-06T15:22:06.362Z,75.47
2023-02-06T15:26:22.148Z,74.53
2023-02-06T15:30:26.033Z,72.63
2023-02-06T15:34:27.956Z,72.76
2023-02-06T15:38:32.373Z,72.62
2023-02-06T15:42:36.463Z,73.16
2023-02-06T15:46:38.657Z,72.94
2023-02-06T15:50:40.112Z,73.54
2023-02-06T15:54:41.974Z,74.42
2023-02-06T15:58:45.742Z,72.91
2023-02-06T16:02:47.316Z,73.92
2023-02-06T16:07:00.468Z,75.92
2023-02-06T16:11:05.368Z,76.25
2023-02-06T16:15:27.307Z,75.13
2023-02-06T16:19:46.865Z,74.07
2023-02-06T16:23:50.542Z,74.91
2023-02-06T16:27:52.947Z,75.17
2023-02-06T16:32:01.001Z,76.00
2023-02-06T16:36:02.440Z,77.17
2023-02-06T16:40:04.389Z,76.44
2023-02-06T16:44:11.696Z,76.35
2023-02-06T16:48:16.872Z,76.25
2023-02-06T16:52:21.957Z,77.75
2023-02-06T16:56:23.576Z,77.11
2023-02-06T17:00:26.824Z,76.72
2023-02-06T17:04:30.067Z,76.87
2023-02-06T17:08:36.949Z,77.30
2023-02-06T17:12:38.515Z,78.11
2023-02-06T17:16:39.965Z,79.02
2023-02-06T17:20:45.090Z,79.07
2023-02-06T17:24:46.600Z,79.63
2023-02-06T17:28:48.988Z,81.46
2023-02-06T17:32:50.412Z,83.04
2023-02-06T17:36:54.205Z,82.04
2023-02-06T17:40:55.648Z,81.51
2023-02-06T17:44:57.075Z,82.85
2023-02-06T17:48:58.517Z,82.99
2023-02-06T17:53:01.313Z,82.49
2023-02-06T17:57:02.897Z,83.11
2023-02-06T18:01:05.540Z,82.60
2023-02-06T18:05:07.408Z,83.54
2023-02-06T18:09:10.207Z,83.09
2023-02-06T18:13:11.681Z,84.20
2023-02-06T18:17:14.220Z,85.42
2023-02-06T18:21:16.557Z,84.35
2023-02-06T18:25:19.381Z,84.42
2023-02-06T18:29:20.839Z,86.87
2023-02-06T18:33:22.304Z,85.07
2023-02-06T18:37:23.791Z,84.46
2023-02-06T18:41:26.586Z,84.99
2023-02-06T18:45:28.019Z,86.84
2023-02-06T18:49:29.533Z,88.04
2023-02-06T18:53:30.961Z,87.12
2023-02-06T18:57:34.343Z,87.44
2023-02-06T19:01:35.856Z,89.42
2023-02-06T19:05:37.348Z,89.54
2023-02-06T19:09:39.233Z,88.63
2023-02-06T19:13:42.075Z,88.08
2023-02-06T19:17:43.909Z,87.83
2023-02-06T19:21:45.767Z,89.27
2023-02-06T19:25:47.222Z,88.53
2023-02-06T19:29:49.998Z,88.02
2023-02-06T19:33:53.429Z,87.79
2023-02-06T19:37:54.892Z,87.54
2023-02-06T19:41:56.335Z,88.52
2023-02-06T19:46:02.736Z,89.35
2023-02-06T19:50:04.973Z,88.77
2023-02-06T19:54:06.717Z,88.68
2023-02-06T19:58:08.152Z,87.99
2023-02-06T20:02:14.174Z,89.39
2023-02-06T20:06:16.229Z,89.93
2023-02-06T20:10:17.701Z,93.57
2023-02-06T20:14:20.165Z,92.15
2023-02-06T20:18:22.974Z,90.57
2023-02-06T20:22:24.413Z,93.07
2023-02-06T20:26:28.770Z,91.97
2023-02-06T20:30:30.962Z,93.81
2023-02-06T20:34:35.104Z,91.66
2023-02-06T20:38:37.164Z,91.66
2023-02-06T20:42:38.643Z,92.73
2023-02-06T20:46:41.440Z,91.86
2023-02-06T20:50:44.237Z,93.66
2023-02-06T20:54:45.922Z,92.65
2023-02-06T20:58:48.569Z,93.38
2023-02-06T21:02:52.024Z,90.70
2023-02-06T21:06:55.766Z,89.90
2023-02-06T21:10:57.222Z,89.97
2023-02-06T21:14:58.711Z,90.51
2023-02-06T21:19:01.339Z,91.35
2023-02-06T21:23:04.160Z,90.86
2023-02-06T21:27:05.614Z,92.66
2023-02-06T21:31:09.327Z,91.92
2023-02-06T21:35:10.934Z,90.43
2023-02-06T21:39:16.377Z,93.00
2023-02-06T21:43:18.068Z,90.98
2023-02-06T21:47:19.502Z,90.63
2023-02-06T21:51:21.501Z,90.75
2023-02-06T21:55:24.297Z,92.80
2023-02-06T21:59:26.766Z,91.85
2023-02-06T22:03:28.864Z,91.42
2023-02-06T22:07:30.307Z,91.33
2023-02-06T22:11:35.471Z,91.48
2023-02-06T22:15:37.161Z,92.53
2023-02-06T22:19:38.860Z,92.22
2023-02-06T22:23:41.651Z,92.71
2023-02-06T22:27:44.466Z,94.70
2023-02-06T22:31:46.134Z,94.57
2023-02-06T22:35:47.647Z,93.45
2023-02-06T22:39:49.076Z,92.73
2023-02-06T22:43:52.176Z,94.79
2023-02-06T22:47:53.618Z,93.99
2023-02-06T22:51:55.056Z,92.25
2023-02-06T22:55:56.520Z,93.97
2023-02-06T22:59:59.320Z,94.31
2023-02-06T23:04:02.221Z,94.64
2023-02-06T23:08:03.867Z,93.03
2023-02-06T23:12:05.720Z,92.68
2023-02-06T23:16:09.599Z,93.34
2023-02-06T23:20:11.956Z,93.79
2023-02-06T23:24:14.189Z,94.81
2023-02-06T23:28:15.910Z,91.74
2023-02-06T23:32:18.747Z,92.96
2023-02-06T23:36:24.867Z,90.73
2023-02-06T23:40:26.525Z,91.96
2023-02-06T23:44:27.982Z,93.06
2023-02-06T23:48:31.363Z,93.05
2023-02-06T23:52:32.867Z,94.91
2023-02-06T23:56:34.788Z,92.91
